sensor_id;sensor_type;location;lat;lon;timestamp;pressure;altitude;pressure_sealevel;temperature;humidity
46922;BME280;44039;48.336;10.454;2022-07-22T00:02:04;96297.41;;;17.47;100.00
46922;BME280;44039;48.336;10.454;2022-07-22T00:04:51;96297.88;;;17.22;100.00
46922;BME280;44039;48.336;10.454;2022-07-22T00:07:39;96292.25;;;17.36;100.00
46922;BME280;44039;48.336;10.454;2022-07-22T00:10:26;96291.00;;;17.71;100.00
46922;BME280;44039;48.336;10.454;2022-07-22T00:13:13;96304.09;;;17.11;100.00
46922;BME280;44039;48.336;10.454;2022-07-22T00:16:01;96299.84;;;16.78;100.00
46922;BME280;44039;48.336;10.454;2022-07-22T00:18:48;96295.56;;;16.77;100.00
46922;BME280;44039;48.336;10.454;2022-07-22T00:21:35;96294.75;;;17.38;100.00
46922;BME280;44039;48.336;10.454;2022-07-22T00:24:22;96284.34;;;17.86;100.00
46922;BME280;44039;48.336;10.454;2022-07-22T00:27:09;96290.75;;;17.74;100.00
46922;BME280;44039;48.336;10.454;2022-07-22T00:29:56;96286.34;;;17.54;100.00
46922;BME280;44039;48.336;10.454;2022-07-22T00:32:43;96277.88;;;17.60;100.00
46922;BME280;44039;48.336;10.454;2022-07-22T00:35:30;96277.16;;;17.88;100.00
46922;BME280;44039;48.336;10.454;2022-07-22T00:38:17;96274.06;;;17.83;100.00
46922;BME280;44039;48.336;10.454;2022-07-22T00:41:04;96275.44;;;17.77;100.00
46922;BME280;44039;48.336;10.454;2022-07-22T00:46:41;96276.88;;;17.91;100.00
46922;BME280;44039;48.336;10.454;2022-07-22T00:49:29;96266.50;;;17.69;100.00
46922;BME280;44039;48.336;10.454;2022-07-22T00:52:18;96269.63;;;17.74;100.00
46922;BME280;44039;48.336;10.454;2022-07-22T00:55:05;96268.50;;;17.86;100.00
46922;BME280;44039;48.336;10.454;2022-07-22T00:57:52;96271.47;;;18.22;98.94
46922;BME280;44039;48.336;10.454;2022-07-22T01:00:39;96265.91;;;18.05;99.14
46922;BME280;44039;48.336;10.454;2022-07-22T01:03:27;96274.09;;;17.43;100.00
46922;BME280;44039;48.336;10.454;2022-07-22T01:06:14;96275.06;;;17.11;100.00
46922;BME280;44039;48.336;10.454;2022-07-22T01:09:01;96277.56;;;16.82;100.00
46922;BME280;44039;48.336;10.454;2022-07-22T01:11:49;96273.81;;;16.43;100.00
46922;BME280;44039;48.336;10.454;2022-07-22T01:14:36;96275.63;;;16.31;100.00
46922;BME280;44039;48.336;10.454;2022-07-22T01:17:23;96278.47;;;16.19;100.00
46922;BME280;44039;48.336;10.454;2022-07-22T01:20:17;96274.47;;;16.24;100.00
46922;BME280;44039;48.336;10.454;2022-07-22T01:23:04;96271.34;;;16.30;100.00
46922;BME280;44039;48.336;10.454;2022-07-22T01:25:51;96269.72;;;16.18;100.00
46922;BME280;44039;48.336;10.454;2022-07-22T01:28:38;96269.50;;;16.42;100.00
46922;BME280;44039;48.336;10.454;2022-07-22T01:31:25;96269.59;;;16.20;100.00
46922;BME280;44039;48.336;10.454;2022-07-22T01:34:13;96271.44;;;16.08;100.00
46922;BME280;44039;48.336;10.454;2022-07-22T01:36:59;96269.25;;;15.81;100.00
46922;BME280;44039;48.336;10.454;2022-07-22T01:39:47;96266.50;;;15.71;100.00
46922;BME280;44039;48.336;10.454;2022-07-22T01:42:35;96266.63;;;15.70;100.00
46922;BME280;44039;48.336;10.454;2022-07-22T01:45:22;96269.28;;;15.70;100.00
46922;BME280;44039;48.336;10.454;2022-07-22T01:48:09;96268.00;;;15.64;100.00
46922;BME280;44039;48.336;10.454;2022-07-22T01:50:56;96263.44;;;15.66;100.00
46922;BME280;44039;48.336;10.454;2022-07-22T01:53:43;96262.72;;;15.64;100.00
46922;BME280;44039;48.336;10.454;2022-07-22T01:56:30;96265.34;;;15.53;100.00
46922;BME280;44039;48.336;10.454;2022-07-22T01:59:17;96258.53;;;15.62;100.00
46922;BME280;44039;48.336;10.454;2022-07-22T02:02:04;96255.41;;;15.56;100.00
46922;BME280;44039;48.336;10.454;2022-07-22T02:04:52;96263.66;;;15.63;100.00
46922;BME280;44039;48.336;10.454;2022-07-22T02:07:39;96264.25;;;15.55;100.00
46922;BME280;44039;48.336;10.454;2022-07-22T02:10:26;96258.75;;;15.58;100.00
46922;BME280;44039;48.336;10.454;2022-07-22T02:13:13;96247.50;;;15.68;100.00
46922;BME280;44039;48.336;10.454;2022-07-22T02:16:00;96253.81;;;15.76;100.00
46922;BME280;44039;48.336;10.454;2022-07-22T02:18:47;96258.06;;;16.00;100.00
46922;BME280;44039;48.336;10.454;2022-07-22T02:21:35;96250.00;;;16.12;100.00
46922;BME280;44039;48.336;10.454;2022-07-22T02:24:22;96251.06;;;16.10;100.00
46922;BME280;44039;48.336;10.454;2022-07-22T02:27:09;96246.09;;;16.28;100.00
46922;BME280;44039;48.336;10.454;2022-07-22T02:29:56;96246.81;;;15.98;100.00
46922;BME280;44039;48.336;10.454;2022-07-22T02:32:43;96249.59;;;15.85;100.00
46922;BME280;44039;48.336;10.454;2022-07-22T02:35:30;96244.06;;;15.99;100.00
46922;BME280;44039;48.336;10.454;2022-07-22T02:38:18;96244.84;;;15.79;100.00
46922;BME280;44039;48.336;10.454;2022-07-22T02:41:05;96241.38;;;15.56;100.00
46922;BME280;44039;48.336;10.454;2022-07-22T02:43:52;96241.22;;;15.37;100.00
46922;BME280;44039;48.336;10.454;2022-07-22T02:46:41;96242.16;;;15.24;100.00
46922;BME280;44039;48.336;10.454;2022-07-22T02:49:28;96236.44;;;15.19;100.00
46922;BME280;44039;48.336;10.454;2022-07-22T02:52:15;96237.00;;;15.56;100.00
46922;BME280;44039;48.336;10.454;2022-07-22T02:55:03;96238.53;;;15.48;100.00
46922;BME280;44039;48.336;10.454;2022-07-22T02:57:50;96240.59;;;15.33;100.00
46922;BME280;44039;48.336;10.454;2022-07-22T03:00:37;96237.13;;;15.44;100.00
46922;BME280;44039;48.336;10.454;2022-07-22T03:03:25;96237.34;;;15.52;100.00
46922;BME280;44039;48.336;10.454;2022-07-22T03:06:12;96239.75;;;15.66;100.00
46922;BME280;44039;48.336;10.454;2022-07-22T03:09:00;96245.72;;;15.46;100.00
46922;BME280;44039;48.336;10.454;2022-07-22T03:11:47;96238.19;;;15.64;100.00
46922;BME280;44039;48.336;10.454;2022-07-22T03:14:34;96235.25;;;16.10;100.00
46922;BME280;44039;48.336;10.454;2022-07-22T03:17:21;96236.38;;;15.75;100.00
46922;BME280;44039;48.336;10.454;2022-07-22T03:20:09;96242.13;;;15.47;100.00
46922;BME280;44039;48.336;10.454;2022-07-22T03:22:57;96243.09;;;15.68;100.00
46922;BME280;44039;48.336;10.454;2022-07-22T03:25:44;96244.41;;;15.63;100.00
46922;BME280;44039;48.336;10.454;2022-07-22T03:28:31;96243.56;;;15.51;100.00
46922;BME280;44039;48.336;10.454;2022-07-22T03:31:18;96242.97;;;15.58;100.00
46922;BME280;44039;48.336;10.454;2022-07-22T03:34:05;96244.19;;;15.66;100.00
46922;BME280;44039;48.336;10.454;2022-07-22T03:36:52;96241.84;;;15.83;100.00
46922;BME280;44039;48.336;10.454;2022-07-22T03:39:39;96255.84;;;16.16;100.00
46922;BME280;44039;48.336;10.454;2022-07-22T03:42:26;96251.81;;;16.01;100.00
46922;BME280;44039;48.336;10.454;2022-07-22T03:45:13;96247.59;;;16.42;100.00
46922;BME280;44039;48.336;10.454;2022-07-22T03:48:00;96250.44;;;15.85;100.00
46922;BME280;44039;48.336;10.454;2022-07-22T03:50:47;96247.84;;;15.74;100.00
46922;BME280;44039;48.336;10.454;2022-07-22T03:53:36;96244.19;;;15.98;100.00
46922;BME280;44039;48.336;10.454;2022-07-22T03:56:23;96246.41;;;16.13;100.00
46922;BME280;44039;48.336;10.454;2022-07-22T03:59:11;96245.25;;;16.27;100.00
46922;BME280;44039;48.336;10.454;2022-07-22T04:01:58;96244.03;;;16.52;100.00
46922;BME280;44039;48.336;10.454;2022-07-22T04:04:45;96248.94;;;16.57;100.00
46922;BME280;44039;48.336;10.454;2022-07-22T04:07:32;96248.94;;;16.78;100.00
46922;BME280;44039;48.336;10.454;2022-07-22T04:10:19;96248.28;;;16.64;100.00
46922;BME280;44039;48.336;10.454;2022-07-22T04:13:06;96237.16;;;16.82;100.00
46922;BME280;44039;48.336;10.454;2022-07-22T04:15:53;96248.28;;;16.64;100.00
46922;BME280;44039;48.336;10.454;2022-07-22T04:18:40;96247.13;;;16.57;100.00
46922;BME280;44039;48.336;10.454;2022-07-22T04:21:28;96246.03;;;16.60;100.00
46922;BME280;44039;48.336;10.454;2022-07-22T04:24:15;96241.66;;;16.49;100.00
46922;BME280;44039;48.336;10.454;2022-07-22T04:27:02;96250.91;;;16.64;100.00
46922;BME280;44039;48.336;10.454;2022-07-22T04:29:49;96237.38;;;17.00;100.00
46922;BME280;44039;48.336;10.454;2022-07-22T04:32:36;96247.44;;;16.43;100.00
46922;BME280;44039;48.336;10.454;2022-07-22T04:35:24;96245.06;;;16.61;100.00
46922;BME280;44039;48.336;10.454;2022-07-22T04:38:11;96243.53;;;16.79;100.00
46922;BME280;44039;48.336;10.454;2022-07-22T04:40:58;96243.13;;;17.14;100.00
46922;BME280;44039;48.336;10.454;2022-07-22T04:43:45;96246.81;;;17.02;100.00
46922;BME280;44039;48.336;10.454;2022-07-22T04:46:32;96243.00;;;16.85;100.00
46922;BME280;44039;48.336;10.454;2022-07-22T04:49:19;96242.59;;;16.80;100.00
46922;BME280;44039;48.336;10.454;2022-07-22T04:52:06;96242.31;;;17.14;100.00
46922;BME280;44039;48.336;10.454;2022-07-22T04:54:55;96238.19;;;17.31;100.00
46922;BME280;44039;48.336;10.454;2022-07-22T04:57:42;96231.41;;;17.38;100.00
46922;BME280;44039;48.336;10.454;2022-07-22T05:00:29;96238.78;;;18.03;100.00
46922;BME280;44039;48.336;10.454;2022-07-22T05:03:16;96232.50;;;18.43;95.82
46922;BME280;44039;48.336;10.454;2022-07-22T05:06:04;96227.25;;;18.14;92.92
46922;BME280;44039;48.336;10.454;2022-07-22T05:08:52;96231.81;;;17.83;97.03
46922;BME280;44039;48.336;10.454;2022-07-22T05:11:39;96220.78;;;18.65;92.57
46922;BME280;44039;48.336;10.454;2022-07-22T05:14:26;96224.50;;;18.92;92.51
46922;BME280;44039;48.336;10.454;2022-07-22T05:17:13;96235.81;;;18.65;90.31
46922;BME280;44039;48.336;10.454;2022-07-22T05:20:03;96229.31;;;19.06;87.60
46922;BME280;44039;48.336;10.454;2022-07-22T05:22:51;96225.06;;;19.50;86.90
46922;BME280;44039;48.336;10.454;2022-07-22T05:25:38;96223.72;;;19.19;85.92
46922;BME280;44039;48.336;10.454;2022-07-22T05:28:25;96224.97;;;19.69;82.21
46922;BME280;44039;48.336;10.454;2022-07-22T05:31:12;96231.28;;;19.41;83.81
46922;BME280;44039;48.336;10.454;2022-07-22T05:33:59;96225.03;;;20.05;81.75
46922;BME280;44039;48.336;10.454;2022-07-22T05:36:47;96216.00;;;20.51;81.23
46922;BME280;44039;48.336;10.454;2022-07-22T05:39:34;96216.50;;;20.37;83.20
46922;BME280;44039;48.336;10.454;2022-07-22T05:42:21;96207.47;;;20.66;80.39
46922;BME280;44039;48.336;10.454;2022-07-22T05:45:08;96196.94;;;21.08;75.01
46922;BME280;44039;48.336;10.454;2022-07-22T05:47:55;96192.81;;;22.14;70.21
46922;BME280;44039;48.336;10.454;2022-07-22T05:50:42;96197.16;;;22.40;73.46
46922;BME280;44039;48.336;10.454;2022-07-22T05:53:29;96206.63;;;21.17;78.85
46922;BME280;44039;48.336;10.454;2022-07-22T05:56:16;96200.28;;;21.44;76.95
46922;BME280;44039;48.336;10.454;2022-07-22T05:59:03;96206.38;;;21.79;76.67
46922;BME280;44039;48.336;10.454;2022-07-22T06:01:51;96202.13;;;22.27;72.90
46922;BME280;44039;48.336;10.454;2022-07-22T06:04:38;96198.06;;;21.82;73.59
46922;BME280;44039;48.336;10.454;2022-07-22T06:07:26;96187.44;;;22.96;68.69
46922;BME280;44039;48.336;10.454;2022-07-22T06:10:13;96189.41;;;23.49;67.49
46922;BME280;44039;48.336;10.454;2022-07-22T06:13:00;96189.28;;;22.95;67.90
46922;BME280;44039;48.336;10.454;2022-07-22T06:15:48;96205.94;;;22.57;69.18
46922;BME280;44039;48.336;10.454;2022-07-22T06:18:35;96211.88;;;21.93;74.85
46922;BME280;44039;48.336;10.454;2022-07-22T06:21:22;96194.63;;;22.87;68.77
46922;BME280;44039;48.336;10.454;2022-07-22T06:24:09;96215.66;;;21.83;73.30
46922;BME280;44039;48.336;10.454;2022-07-22T06:26:56;96220.53;;;22.04;74.07
46922;BME280;44039;48.336;10.454;2022-07-22T06:29:43;96217.41;;;22.49;73.41
46922;BME280;44039;48.336;10.454;2022-07-22T06:32:30;96205.88;;;23.84;66.02
46922;BME280;44039;48.336;10.454;2022-07-22T06:35:17;96224.06;;;22.29;73.62
46922;BME280;44039;48.336;10.454;2022-07-22T06:38:04;96209.22;;;22.83;73.35
46922;BME280;44039;48.336;10.454;2022-07-22T06:40:52;96215.59;;;22.58;73.69
46922;BME280;44039;48.336;10.454;2022-07-22T06:43:40;96210.56;;;22.95;72.65
46922;BME280;44039;48.336;10.454;2022-07-22T06:46:27;96204.28;;;23.36;69.55
46922;BME280;44039;48.336;10.454;2022-07-22T06:49:15;96199.28;;;24.26;66.48
46922;BME280;44039;48.336;10.454;2022-07-22T06:52:04;96202.94;;;23.40;71.82
46922;BME280;44039;48.336;10.454;2022-07-22T06:54:51;96213.63;;;23.32;73.35
46922;BME280;44039;48.336;10.454;2022-07-22T06:57:38;96204.97;;;24.46;70.37
46922;BME280;44039;48.336;10.454;2022-07-22T07:00:25;96177.97;;;25.82;57.34
46922;BME280;44039;48.336;10.454;2022-07-22T07:03:12;96163.91;;;27.56;50.10
46922;BME280;44039;48.336;10.454;2022-07-22T07:06:19;96161.25;;;28.30;48.02
46922;BME280;44039;48.336;10.454;2022-07-22T07:09:07;96153.41;;;27.61;44.73
46922;BME280;44039;48.336;10.454;2022-07-22T07:11:54;96153.31;;;27.95;46.39
46922;BME280;44039;48.336;10.454;2022-07-22T07:14:41;96159.03;;;27.25;44.95
46922;BME280;44039;48.336;10.454;2022-07-22T07:17:48;96158.81;;;25.78;47.88
46922;BME280;44039;48.336;10.454;2022-07-22T07:20:36;96151.72;;;27.12;45.37
46922;BME280;44039;48.336;10.454;2022-07-22T07:23:24;96145.44;;;27.33;44.62
46922;BME280;44039;48.336;10.454;2022-07-22T07:26:10;96146.13;;;28.89;44.65
46922;BME280;44039;48.336;10.454;2022-07-22T07:28:58;96145.97;;;27.63;43.14
46922;BME280;44039;48.336;10.454;2022-07-22T07:31:45;96145.97;;;28.44;43.98
46922;BME280;44039;48.336;10.454;2022-07-22T07:34:33;96148.06;;;27.67;43.63
46922;BME280;44039;48.336;10.454;2022-07-22T07:37:19;96147.38;;;28.86;42.85
46922;BME280;44039;48.336;10.454;2022-07-22T07:40:07;96152.59;;;29.59;41.15
46922;BME280;44039;48.336;10.454;2022-07-22T07:42:54;96147.81;;;28.50;40.43
46922;BME280;44039;48.336;10.454;2022-07-22T07:45:48;96170.56;;;26.41;47.67
46922;BME280;44039;48.336;10.454;2022-07-22T07:48:36;96156.53;;;26.95;46.79
46922;BME280;44039;48.336;10.454;2022-07-22T07:51:23;96149.47;;;27.57;45.13
46922;BME280;44039;48.336;10.454;2022-07-22T07:54:10;96144.38;;;29.54;41.69
46922;BME280;44039;48.336;10.454;2022-07-22T07:56:57;96144.88;;;29.11;41.67
46922;BME280;44039;48.336;10.454;2022-07-22T07:59:44;96142.78;;;29.20;44.99
46922;BME280;44039;48.336;10.454;2022-07-22T08:02:31;96137.16;;;30.24;40.45
46922;BME280;44039;48.336;10.454;2022-07-22T08:05:19;96138.34;;;29.52;41.22
46922;BME280;44039;48.336;10.454;2022-07-22T08:08:09;96142.00;;;27.04;46.17
46922;BME280;44039;48.336;10.454;2022-07-22T08:11:01;96132.97;;;28.47;43.98
46922;BME280;44039;48.336;10.454;2022-07-22T08:13:48;96131.25;;;29.06;44.64
46922;BME280;44039;48.336;10.454;2022-07-22T08:16:36;96132.63;;;27.83;45.95
46922;BME280;44039;48.336;10.454;2022-07-22T08:19:24;96129.41;;;28.27;44.02
46922;BME280;44039;48.336;10.454;2022-07-22T08:22:11;96125.00;;;29.19;43.10
46922;BME280;44039;48.336;10.454;2022-07-22T08:24:58;96131.28;;;28.60;42.50
46922;BME280;44039;48.336;10.454;2022-07-22T08:27:45;96125.19;;;27.72;44.51
46922;BME280;44039;48.336;10.454;2022-07-22T08:30:32;96114.22;;;29.83;40.77
46922;BME280;44039;48.336;10.454;2022-07-22T08:33:19;96114.84;;;30.17;40.80
46922;BME280;44039;48.336;10.454;2022-07-22T08:36:07;96105.13;;;30.66;40.48
46922;BME280;44039;48.336;10.454;2022-07-22T08:38:54;96100.38;;;30.61;38.45
46922;BME280;44039;48.336;10.454;2022-07-22T08:41:42;96105.69;;;29.42;41.23
46922;BME280;44039;48.336;10.454;2022-07-22T08:44:31;96098.84;;;29.90;38.30
46922;BME280;44039;48.336;10.454;2022-07-22T08:47:22;96104.19;;;28.81;41.09
46922;BME280;44039;48.336;10.454;2022-07-22T08:50:30;96092.38;;;29.02;39.98
46922;BME280;44039;48.336;10.454;2022-07-22T08:53:17;96083.47;;;31.64;35.14
46922;BME280;44039;48.336;10.454;2022-07-22T08:56:05;96088.75;;;30.67;37.20
46922;BME280;44039;48.336;10.454;2022-07-22T08:58:52;96084.31;;;30.73;39.48
46922;BME280;44039;48.336;10.454;2022-07-22T09:02:02;96087.31;;;30.40;38.04
46922;BME280;44039;48.336;10.454;2022-07-22T09:04:56;96090.50;;;31.17;37.27
46922;BME280;44039;48.336;10.454;2022-07-22T09:07:44;96079.94;;;31.52;36.13
46922;BME280;44039;48.336;10.454;2022-07-22T09:10:35;96072.94;;;33.57;33.64
46922;BME280;44039;48.336;10.454;2022-07-22T09:13:23;96080.16;;;31.32;37.46
46922;BME280;44039;48.336;10.454;2022-07-22T09:16:10;96068.19;;;31.28;35.63
46922;BME280;44039;48.336;10.454;2022-07-22T09:18:57;96074.88;;;30.14;37.68
46922;BME280;44039;48.336;10.454;2022-07-22T09:21:45;96063.84;;;31.27;38.61
46922;BME280;44039;48.336;10.454;2022-07-22T09:24:34;96050.38;;;33.51;33.25
46922;BME280;44039;48.336;10.454;2022-07-22T09:27:24;96049.31;;;32.42;34.22
46922;BME280;44039;48.336;10.454;2022-07-22T09:30:20;96057.25;;;31.23;35.44
46922;BME280;44039;48.336;10.454;2022-07-22T09:33:09;96050.31;;;32.17;35.14
46922;BME280;44039;48.336;10.454;2022-07-22T09:36:03;96041.22;;;33.40;32.33
46922;BME280;44039;48.336;10.454;2022-07-22T09:38:52;96052.34;;;31.80;36.43
46922;BME280;44039;48.336;10.454;2022-07-22T09:41:56;96058.44;;;30.90;39.05
46922;BME280;44039;48.336;10.454;2022-07-22T09:44:46;96043.22;;;32.93;35.72
46922;BME280;44039;48.336;10.454;2022-07-22T09:47:33;96049.28;;;32.30;35.74
46922;BME280;44039;48.336;10.454;2022-07-22T09:50:27;96040.16;;;31.89;34.82
46922;BME280;44039;48.336;10.454;2022-07-22T09:53:18;96036.91;;;31.99;36.22
46922;BME280;44039;48.336;10.454;2022-07-22T09:56:06;96026.75;;;32.71;34.21
46922;BME280;44039;48.336;10.454;2022-07-22T09:58:53;96040.47;;;32.81;34.17
46922;BME280;44039;48.336;10.454;2022-07-22T10:01:41;96036.28;;;31.55;35.55
46922;BME280;44039;48.336;10.454;2022-07-22T10:04:31;96033.91;;;31.47;34.36
46922;BME280;44039;48.336;10.454;2022-07-22T10:07:20;96013.47;;;34.24;30.20
46922;BME280;44039;48.336;10.454;2022-07-22T10:10:12;96015.00;;;33.58;30.10
46922;BME280;44039;48.336;10.454;2022-07-22T10:13:01;96022.72;;;33.09;33.16
46922;BME280;44039;48.336;10.454;2022-07-22T10:15:49;96010.38;;;33.41;30.59
46922;BME280;44039;48.336;10.454;2022-07-22T10:18:37;96012.25;;;34.48;31.48
46922;BME280;44039;48.336;10.454;2022-07-22T10:21:32;96003.97;;;34.77;29.48
46922;BME280;44039;48.336;10.454;2022-07-22T10:24:20;96012.06;;;32.32;33.47
46922;BME280;44039;48.336;10.454;2022-07-22T10:27:10;95997.03;;;32.48;31.61
46922;BME280;44039;48.336;10.454;2022-07-22T10:29:59;95989.16;;;34.84;28.92
46922;BME280;44039;48.336;10.454;2022-07-22T10:33:13;95979.09;;;33.62;26.48
46922;BME280;44039;48.336;10.454;2022-07-22T10:36:03;95985.28;;;34.97;28.38
46922;BME280;44039;48.336;10.454;2022-07-22T10:39:07;95986.16;;;33.63;29.15
46922;BME280;44039;48.336;10.454;2022-07-22T10:41:55;95989.25;;;34.17;30.43
46922;BME280;44039;48.336;10.454;2022-07-22T10:44:48;95971.88;;;36.63;26.82
46922;BME280;44039;48.336;10.454;2022-07-22T10:48:03;95966.66;;;34.28;25.97
46922;BME280;44039;48.336;10.454;2022-07-22T10:51:19;95963.72;;;34.13;26.33
46922;BME280;44039;48.336;10.454;2022-07-22T10:54:10;95981.44;;;32.38;28.07
46922;BME280;44039;48.336;10.454;2022-07-22T10:57:05;95971.94;;;34.96;27.43
46922;BME280;44039;48.336;10.454;2022-07-22T10:59:55;95960.16;;;35.07;26.31
46922;BME280;44039;48.336;10.454;2022-07-22T11:02:42;95968.03;;;35.30;28.66
46922;BME280;44039;48.336;10.454;2022-07-22T11:05:30;95964.13;;;32.27;30.43
46922;BME280;44039;48.336;10.454;2022-07-22T11:08:18;95955.47;;;34.59;27.42
46922;BME280;44039;48.336;10.454;2022-07-22T11:11:06;95958.38;;;34.74;30.50
46922;BME280;44039;48.336;10.454;2022-07-22T11:13:53;95950.78;;;33.98;27.82
46922;BME280;44039;48.336;10.454;2022-07-22T11:16:41;95943.78;;;35.46;27.24
46922;BME280;44039;48.336;10.454;2022-07-22T11:19:30;95946.16;;;34.93;25.81
46922;BME280;44039;48.336;10.454;2022-07-22T11:22:18;95941.41;;;34.06;27.25
46922;BME280;44039;48.336;10.454;2022-07-22T11:25:08;95940.88;;;34.43;26.81
46922;BME280;44039;48.336;10.454;2022-07-22T11:27:55;95946.94;;;34.33;29.19
46922;BME280;44039;48.336;10.454;2022-07-22T11:30:44;95937.25;;;36.48;26.92
46922;BME280;44039;48.336;10.454;2022-07-22T11:33:31;95933.31;;;34.45;26.53
46922;BME280;44039;48.336;10.454;2022-07-22T11:36:18;95929.91;;;36.43;26.15
46922;BME280;44039;48.336;10.454;2022-07-22T11:39:07;95926.81;;;35.11;25.75
46922;BME280;44039;48.336;10.454;2022-07-22T11:41:58;95919.06;;;37.16;25.00
46922;BME280;44039;48.336;10.454;2022-07-22T11:44:46;95916.34;;;35.74;24.61
46922;BME280;44039;48.336;10.454;2022-07-22T11:47:48;95909.22;;;36.95;23.68
46922;BME280;44039;48.336;10.454;2022-07-22T11:50:35;95898.31;;;35.95;23.91
46922;BME280;44039;48.336;10.454;2022-07-22T11:53:22;95910.56;;;35.98;28.20
46922;BME280;44039;48.336;10.454;2022-07-22T11:56:10;95892.63;;;36.39;24.66
46922;BME280;44039;48.336;10.454;2022-07-22T11:58:58;95901.53;;;36.82;24.58
46922;BME280;44039;48.336;10.454;2022-07-22T12:01:47;95898.41;;;34.92;28.44
46922;BME280;44039;48.336;10.454;2022-07-22T12:04:34;95894.50;;;36.86;25.11
46922;BME280;44039;48.336;10.454;2022-07-22T12:07:22;95893.16;;;35.07;27.56
46922;BME280;44039;48.336;10.454;2022-07-22T12:10:09;95892.31;;;36.88;28.02
46922;BME280;44039;48.336;10.454;2022-07-22T12:12:56;95875.59;;;36.11;25.56
46922;BME280;44039;48.336;10.454;2022-07-22T12:15:43;95878.50;;;35.08;27.08
46922;BME280;44039;48.336;10.454;2022-07-22T12:18:39;95865.66;;;36.27;25.00
46922;BME280;44039;48.336;10.454;2022-07-22T12:21:49;95852.44;;;37.90;23.52
46922;BME280;44039;48.336;10.454;2022-07-22T12:24:39;95855.13;;;37.24;26.44
46922;BME280;44039;48.336;10.454;2022-07-22T12:27:26;95852.66;;;35.28;24.30
46922;BME280;44039;48.336;10.454;2022-07-22T12:30:14;95857.25;;;35.54;25.63
46922;BME280;44039;48.336;10.454;2022-07-22T12:33:02;95846.25;;;36.66;23.67
46922;BME280;44039;48.336;10.454;2022-07-22T12:36:06;95843.78;;;36.64;23.56
46922;BME280;44039;48.336;10.454;2022-07-22T12:38:53;95846.03;;;35.19;25.91
46922;BME280;44039;48.336;10.454;2022-07-22T12:41:51;95847.09;;;36.19;25.86
46922;BME280;44039;48.336;10.454;2022-07-22T12:44:38;95852.66;;;33.96;28.65
46922;BME280;44039;48.336;10.454;2022-07-22T12:47:53;95851.88;;;33.62;29.51
46922;BME280;44039;48.336;10.454;2022-07-22T12:50:54;95840.56;;;34.43;28.61
46922;BME280;44039;48.336;10.454;2022-07-22T12:53:42;95843.47;;;35.34;27.45
46922;BME280;44039;48.336;10.454;2022-07-22T12:56:32;95842.63;;;34.52;27.19
46922;BME280;44039;48.336;10.454;2022-07-22T12:59:22;95837.78;;;34.16;27.59
46922;BME280;44039;48.336;10.454;2022-07-22T13:02:09;95836.78;;;36.21;25.41
46922;BME280;44039;48.336;10.454;2022-07-22T13:04:56;95815.94;;;37.61;22.32
46922;BME280;44039;48.336;10.454;2022-07-22T13:07:44;95823.84;;;35.54;24.43
46922;BME280;44039;48.336;10.454;2022-07-22T13:10:31;95829.09;;;36.65;27.02
46922;BME280;44039;48.336;10.454;2022-07-22T13:13:19;95839.16;;;33.63;29.98
46922;BME280;44039;48.336;10.454;2022-07-22T13:16:07;95823.38;;;35.35;24.95
46922;BME280;44039;48.336;10.454;2022-07-22T13:18:54;95818.16;;;36.45;25.00
46922;BME280;44039;48.336;10.454;2022-07-22T13:21:41;95815.22;;;35.99;22.97
46922;BME280;44039;48.336;10.454;2022-07-22T13:24:30;95821.84;;;35.76;23.95
46922;BME280;44039;48.336;10.454;2022-07-22T13:27:17;95826.03;;;36.41;25.62
46922;BME280;44039;48.336;10.454;2022-07-22T13:30:05;95808.31;;;35.86;24.15
46922;BME280;44039;48.336;10.454;2022-07-22T13:32:52;95809.56;;;36.79;23.88
46922;BME280;44039;48.336;10.454;2022-07-22T13:35:39;95809.13;;;37.63;24.17
46922;BME280;44039;48.336;10.454;2022-07-22T13:38:27;95804.75;;;37.21;24.92
46922;BME280;44039;48.336;10.454;2022-07-22T13:41:14;95807.16;;;36.87;22.17
46922;BME280;44039;48.336;10.454;2022-07-22T13:44:03;95790.88;;;37.89;21.24
46922;BME280;44039;48.336;10.454;2022-07-22T13:46:59;95799.59;;;37.55;22.64
46922;BME280;44039;48.336;10.454;2022-07-22T13:49:46;95799.22;;;36.81;22.81
46922;BME280;44039;48.336;10.454;2022-07-22T13:52:37;95801.75;;;37.18;26.02
46922;BME280;44039;48.336;10.454;2022-07-22T13:55:24;95795.72;;;36.17;23.90
46922;BME280;44039;48.336;10.454;2022-07-22T13:58:11;95792.78;;;36.34;24.07
46922;BME280;44039;48.336;10.454;2022-07-22T14:00:59;95782.22;;;35.85;23.00
46922;BME280;44039;48.336;10.454;2022-07-22T14:03:46;95796.31;;;35.77;24.15
46922;BME280;44039;48.336;10.454;2022-07-22T14:06:34;95796.31;;;34.15;24.59
46922;BME280;44039;48.336;10.454;2022-07-22T14:09:21;95785.75;;;34.14;24.45
46922;BME280;44039;48.336;10.454;2022-07-22T14:12:24;95797.13;;;34.38;24.79
46922;BME280;44039;48.336;10.454;2022-07-22T14:15:11;95789.31;;;36.39;22.56
46922;BME280;44039;48.336;10.454;2022-07-22T14:17:59;95784.44;;;36.41;22.04
46922;BME280;44039;48.336;10.454;2022-07-22T14:20:46;95787.56;;;36.12;23.31
46922;BME280;44039;48.336;10.454;2022-07-22T14:23:33;95777.13;;;36.46;22.12
46922;BME280;44039;48.336;10.454;2022-07-22T14:26:20;95781.56;;;34.50;24.77
46922;BME280;44039;48.336;10.454;2022-07-22T14:29:07;95778.75;;;35.90;23.36
46922;BME280;44039;48.336;10.454;2022-07-22T14:31:54;95773.56;;;36.46;22.84
46922;BME280;44039;48.336;10.454;2022-07-22T14:34:41;95771.75;;;36.77;22.31
46922;BME280;44039;48.336;10.454;2022-07-22T14:37:28;95766.34;;;35.30;22.39
46922;BME280;44039;48.336;10.454;2022-07-22T14:40:16;95765.38;;;34.33;23.31
46922;BME280;44039;48.336;10.454;2022-07-22T14:43:03;95759.06;;;35.73;21.65